createdAt,value
2019-01-18T00:00:19.864Z,6.53
2019-01-18T00:02:48.281Z,6.47
2019-01-18T00:05:16.794Z,4.25
2019-01-18T00:07:45.226Z,10.93
2019-01-18T00:10:13.748Z,3.42
2019-01-18T00:12:42.168Z,4.25
2019-01-18T00:15:11.242Z,3.87
2019-01-18T00:17:39.654Z,6.40
2019-01-18T00:20:13.729Z,5.20
2019-01-18T00:22:42.146Z,6.65
2019-01-18T00:25:10.834Z,5.87
2019-01-18T00:27:39.443Z,15.90
2019-01-18T00:30:16.242Z,6.40
2019-01-18T00:32:44.682Z,7.42
2019-01-18T00:35:13.262Z,7.40
2019-01-18T00:37:41.677Z,6.85
2019-01-18T00:40:13.200Z,5.47
2019-01-18T00:42:41.644Z,9.93
2019-01-18T00:45:13.045Z,11.30
2019-01-18T00:47:41.559Z,4.90
2019-01-18T00:50:12.914Z,9.78
2019-01-18T00:52:41.450Z,15.70
2019-01-18T00:55:10.923Z,3.55
2019-01-18T00:57:39.440Z,6.53
2019-01-18T01:00:14.078Z,4.70
2019-01-18T01:02:42.521Z,6.70
2019-01-18T01:05:11.009Z,4.45
2019-01-18T01:07:39.617Z,7.45
2019-01-18T01:10:10.901Z,12.70
2019-01-18T01:12:39.886Z,7.37
2019-01-18T01:15:14.635Z,7.58
2019-01-18T01:17:43.333Z,4.05
2019-01-18T01:20:13.906Z,6.25
2019-01-18T01:22:42.489Z,7.33
2019-01-18T01:25:11.847Z,5.25
2019-01-18T01:27:40.930Z,5.25
2019-01-18T01:30:13.243Z,4.03
2019-01-18T01:32:41.694Z,7.45
2019-01-18T01:35:10.258Z,10.68
2019-01-18T01:37:38.707Z,8.25
2019-01-18T01:40:13.080Z,7.30
2019-01-18T01:42:41.531Z,11.25
2019-01-18T01:45:11.418Z,6.00
2019-01-18T01:47:39.839Z,9.85
2019-01-18T01:50:11.402Z,7.58
2019-01-18T01:52:39.834Z,4.80
2019-01-18T01:55:08.931Z,7.90
2019-01-18T01:57:37.434Z,13.25
2019-01-18T02:00:23.646Z,5.45
2019-01-18T02:02:52.083Z,5.87
2019-01-18T02:05:20.676Z,6.60
2019-01-18T02:07:49.166Z,5.35
2019-01-18T02:10:19.235Z,9.43
2019-01-18T02:12:48.194Z,7.12
2019-01-18T02:15:21.704Z,8.80
2019-01-18T02:17:50.368Z,8.05
2019-01-18T02:20:23.170Z,7.62
2019-01-18T02:22:52.031Z,10.75
2019-01-18T02:25:20.482Z,9.03
2019-01-18T02:27:49.041Z,8.08
2019-01-18T02:30:20.323Z,6.55
2019-01-18T02:32:48.913Z,6.03
2019-01-18T02:35:17.500Z,6.33
2019-01-18T02:37:45.916Z,6.25
2019-01-18T02:40:14.677Z,7.97
2019-01-18T02:42:43.122Z,7.30
2019-01-18T02:45:14.686Z,11.43
2019-01-18T02:47:43.190Z,5.95
2019-01-18T02:50:12.682Z,8.38
2019-01-18T02:52:41.113Z,8.10
2019-01-18T02:55:10.674Z,6.95
2019-01-18T02:57:39.119Z,8.18
2019-01-18T03:00:19.776Z,13.83
2019-01-18T03:02:48.219Z,8.40
2019-01-18T03:05:19.399Z,11.57
2019-01-18T03:07:48.010Z,11.25
2019-01-18T03:10:22.362Z,8.40
2019-01-18T03:12:50.884Z,6.42
2019-01-18T03:15:19.468Z,7.53
2019-01-18T03:17:47.995Z,7.33
2019-01-18T03:20:18.266Z,12.63
2019-01-18T03:22:46.711Z,9.90
2019-01-18T03:25:17.778Z,7.10
2019-01-18T03:27:46.224Z,11.57
2019-01-18T03:30:20.704Z,8.18
2019-01-18T03:32:49.255Z,8.00
2019-01-18T03:35:19.821Z,8.10
2019-01-18T03:37:48.423Z,9.45
2019-01-18T03:40:18.400Z,10.05
2019-01-18T03:42:47.884Z,5.67
2019-01-18T03:45:18.041Z,8.65
2019-01-18T03:47:46.855Z,6.97
2019-01-18T03:50:17.987Z,7.12
2019-01-18T03:52:46.513Z,13.00
2019-01-18T03:55:15.127Z,7.60
2019-01-18T03:57:43.688Z,11.08
2019-01-18T04:00:15.137Z,13.50
2019-01-18T04:02:43.694Z,8.73
2019-01-18T04:05:12.780Z,10.72
2019-01-18T04:07:41.434Z,7.10
2019-01-18T04:10:13.221Z,12.10
2019-01-18T04:12:41.807Z,6.10
2019-01-18T04:15:12.856Z,9.50
2019-01-18T04:17:41.351Z,6.53
2019-01-18T04:20:12.735Z,8.90
2019-01-18T04:22:42.444Z,14.68
2019-01-18T04:25:13.862Z,5.97
2019-01-18T04:27:42.291Z,20.15
2019-01-18T04:30:22.046Z,9.23
2019-01-18T04:32:50.818Z,7.58
2019-01-18T04:35:19.642Z,10.72
2019-01-18T04:37:48.401Z,12.78
2019-01-18T04:40:25.165Z,9.60
2019-01-18T04:42:53.832Z,12.10
2019-01-18T04:45:22.798Z,10.50
2019-01-18T04:47:51.229Z,9.60
2019-01-18T04:50:25.302Z,9.53
2019-01-18T04:52:53.814Z,8.25
2019-01-18T04:55:22.481Z,11.08
2019-01-18T04:57:50.997Z,11.50
2019-01-18T05:00:25.090Z,11.93
2019-01-18T05:02:53.778Z,14.78
2019-01-18T05:05:22.383Z,18.07
2019-01-18T05:07:50.901Z,6.40
2019-01-18T05:10:21.564Z,22.07
2019-01-18T05:12:50.079Z,12.35
2019-01-18T05:15:23.606Z,10.15
2019-01-18T05:17:52.121Z,11.20
2019-01-18T05:20:20.626Z,12.33
2019-01-18T05:22:49.312Z,7.47
2019-01-18T05:25:17.730Z,15.53
2019-01-18T05:27:46.249Z,9.35
2019-01-18T05:30:23.303Z,9.30
2019-01-18T05:32:51.831Z,10.43
2019-01-18T05:35:20.490Z,8.10
2019-01-18T05:37:48.948Z,12.93
2019-01-18T05:40:19.405Z,9.73
2019-01-18T05:42:48.519Z,12.93
2019-01-18T05:45:18.989Z,15.13
2019-01-18T05:47:47.505Z,9.23
2019-01-18T05:50:21.705Z,12.53
2019-01-18T05:52:50.214Z,8.53
2019-01-18T05:55:18.777Z,9.28
2019-01-18T05:57:47.309Z,8.33
2019-01-18T06:00:28.862Z,10.25
2019-01-18T06:02:57.368Z,9.35
2019-01-18T06:05:26.171Z,8.98
2019-01-18T06:07:54.597Z,14.43
2019-01-18T06:10:23.116Z,10.68
2019-01-18T06:12:51.612Z,15.68
2019-01-18T06:15:20.057Z,7.03
2019-01-18T06:17:48.489Z,8.73
2019-01-18T06:20:17.778Z,6.78
2019-01-18T06:22:46.257Z,7.60
2019-01-18T06:25:14.716Z,14.47
2019-01-18T06:27:43.137Z,13.88
2019-01-18T06:30:14.822Z,24.57
2019-01-18T06:32:43.245Z,8.63
2019-01-18T06:35:12.127Z,9.93
2019-01-18T06:37:40.582Z,7.22
2019-01-18T06:40:18.695Z,10.75
2019-01-18T06:42:47.109Z,13.83
2019-01-18T06:45:18.091Z,7.22
2019-01-18T06:47:46.511Z,12.98
2019-01-18T06:50:16.899Z,8.90
2019-01-18T06:52:45.314Z,7.70
2019-01-18T06:55:13.995Z,12.25
2019-01-18T06:57:42.479Z,7.80
2019-01-18T07:00:17.078Z,10.30
2019-01-18T07:02:45.643Z,9.73
2019-01-18T07:05:14.230Z,11.97
2019-01-18T07:07:42.745Z,11.35
2019-01-18T07:10:20.721Z,9.93
2019-01-18T07:12:47.173Z,11.97
2019-01-18T07:15:15.758Z,13.40
2019-01-18T07:17:44.376Z,10.40
2019-01-18T07:20:14.742Z,8.25
2019-01-18T07:22:43.197Z,16.82
2019-01-18T07:25:20.261Z,10.82
2019-01-18T07:27:48.707Z,15.50
2019-01-18T07:30:22.827Z,11.63
2019-01-18T07:32:51.433Z,11.90
2019-01-18T07:35:20.096Z,9.85
2019-01-18T07:37:48.555Z,12.35
2019-01-18T07:40:17.277Z,11.40
2019-01-18T07:42:45.847Z,20.08
2019-01-18T07:45:19.934Z,14.83
2019-01-18T07:47:48.520Z,13.10
2019-01-18T07:50:20.036Z,11.38
2019-01-18T07:52:47.511Z,11.90
2019-01-18T07:55:15.920Z,19.15
2019-01-18T07:57:44.366Z,14.75
2019-01-18T08:00:21.363Z,17.45
2019-01-18T08:02:50.038Z,13.28
2019-01-18T08:05:19.218Z,19.32
2019-01-18T08:07:47.751Z,22.15
2019-01-18T08:13:09.390Z,13.62
2019-01-18T08:15:37.948Z,13.28
2019-01-18T08:18:06.402Z,10.38
2019-01-18T08:20:35.060Z,10.98
2019-01-18T08:23:03.651Z,10.85
2019-01-18T08:25:32.062Z,11.33
2019-01-18T08:28:00.726Z,10.65
2019-01-18T08:30:30.417Z,11.12
2019-01-18T08:32:58.926Z,10.08
2019-01-18T08:35:28.236Z,12.78
2019-01-18T08:37:56.725Z,15.63
2019-01-18T08:40:27.784Z,12.18
2019-01-18T08:42:56.206Z,18.05
2019-01-18T08:45:30.848Z,9.45
2019-01-18T08:47:59.288Z,8.53
2019-01-18T08:50:27.874Z,9.65
2019-01-18T08:52:56.286Z,12.15
2019-01-18T08:55:24.797Z,10.95
2019-01-18T08:57:53.223Z,13.20
2019-01-18T09:00:25.006Z,9.85
2019-01-18T09:02:53.505Z,6.65
2019-01-18T09:05:24.752Z,7.55
2019-01-18T09:07:55.270Z,9.40
2019-01-18T09:10:30.002Z,12.90
2019-01-18T09:12:58.429Z,11.43
2019-01-18T09:15:26.950Z,12.93
2019-01-18T09:17:55.451Z,8.98
2019-01-18T09:20:28.981Z,10.48
2019-01-18T09:22:57.542Z,12.23
2019-01-18T09:25:26.209Z,7.47
2019-01-18T09:27:54.742Z,7.62
2019-01-18T09:30:25.630Z,10.63
2019-01-18T09:32:54.403Z,6.72
2019-01-18T09:35:24.528Z,13.35
2019-01-18T09:37:53.806Z,17.17
2019-01-18T09:40:31.063Z,17.60
2019-01-18T09:42:59.544Z,20.32
2019-01-18T09:45:28.211Z,13.68
2019-01-18T09:47:56.821Z,11.50
2019-01-18T09:50:28.163Z,10.65
2019-01-18T09:52:57.052Z,7.53
2019-01-18T09:55:25.559Z,6.45
2019-01-18T09:57:54.143Z,6.30
2019-01-18T10:00:31.280Z,13.85
2019-01-18T10:02:59.967Z,15.08
2019-01-18T10:05:29.044Z,33.20
2019-01-18T10:07:57.495Z,7.87
2019-01-18T10:10:25.980Z,8.05
2019-01-18T10:12:54.998Z,11.38
2019-01-18T10:15:26.454Z,8.23
2019-01-18T10:18:00.662Z,7.65
2019-01-18T10:20:25.113Z,4.40
2019-01-18T10:22:53.827Z,3.40
2019-01-18T10:25:22.249Z,9.80
2019-01-18T10:27:50.690Z,6.05
2019-01-18T10:30:21.915Z,4.65
2019-01-18T10:32:50.423Z,9.20
2019-01-18T10:35:19.127Z,5.67
2019-01-18T10:37:47.641Z,5.95
2019-01-18T10:40:17.195Z,9.75
2019-01-18T10:42:47.076Z,7.67
2019-01-18T10:45:17.137Z,9.05
2019-01-18T10:47:45.913Z,8.25
2019-01-18T10:50:19.795Z,9.05
2019-01-18T10:52:48.386Z,8.25
2019-01-18T10:55:16.942Z,9.20
2019-01-18T10:57:45.610Z,5.08
2019-01-18T11:00:17.329Z,5.50
2019-01-18T11:02:45.758Z,5.70
2019-01-18T11:05:14.723Z,6.15
2019-01-18T11:07:43.230Z,7.72
2019-01-18T11:10:16.207Z,6.17
2019-01-18T11:12:44.866Z,7.53
2019-01-18T11:15:15.755Z,5.15
2019-01-18T11:17:44.170Z,6.28
2019-01-18T11:20:27.538Z,7.28
2019-01-18T11:22:57.717Z,8.45
2019-01-18T11:25:31.740Z,5.60
2019-01-18T11:27:56.393Z,7.25
2019-01-18T11:30:24.915Z,9.45
2019-01-18T11:32:53.427Z,10.30
2019-01-18T11:35:22.006Z,14.20
2019-01-18T11:37:50.579Z,10.55
2019-01-18T11:40:21.665Z,8.03
2019-01-18T11:42:50.444Z,8.40
2019-01-18T11:45:19.338Z,7.53
2019-01-18T11:47:47.894Z,18.75
2019-01-18T11:50:22.147Z,13.43
2019-01-18T11:52:50.639Z,8.05
2019-01-18T11:55:19.166Z,11.18
2019-01-18T11:57:47.666Z,6.72
2019-01-18T12:00:24.623Z,8.00
2019-01-18T12:02:53.125Z,11.35
2019-01-18T12:05:21.733Z,8.15
2019-01-18T12:07:50.307Z,17.75
2019-01-18T12:10:26.988Z,9.73
2019-01-18T12:12:55.554Z,9.85
2019-01-18T12:15:34.565Z,7.42
2019-01-18T12:27:03.367Z,10.48
2019-01-18T12:29:48.508Z,10.23
2019-01-18T12:33:55.978Z,5.90
2019-01-18T12:47:18.961Z,3.58
2019-01-18T12:50:08.254Z,5.87
2019-01-18T12:52:36.694Z,2.35
2019-01-18T12:55:07.263Z,3.45
2019-01-18T12:57:35.775Z,7.47
2019-01-18T13:00:09.962Z,5.10
2019-01-18T13:02:38.460Z,2.40
2019-01-18T13:05:10.131Z,2.92
2019-01-18T13:07:38.582Z,2.37
2019-01-18T13:10:12.290Z,2.20
2019-01-18T13:12:39.427Z,3.33
2019-01-18T13:15:17.087Z,13.65
2019-01-18T13:17:45.558Z,20.27
2019-01-18T13:20:14.201Z,21.42
2019-01-18T13:22:42.792Z,8.80
2019-01-18T13:25:16.416Z,14.80
2019-01-18T13:27:44.922Z,2.75
2019-01-18T13:30:15.683Z,2.10
2019-01-18T13:32:44.297Z,3.90
2019-01-18T13:35:12.952Z,3.35
2019-01-18T13:37:41.387Z,5.15
2019-01-18T13:40:21.028Z,7.40
2019-01-18T13:42:49.475Z,3.75
2019-01-18T13:45:17.981Z,6.72
2019-01-18T13:47:47.157Z,4.45
2019-01-18T13:50:20.143Z,4.22
2019-01-18T13:52:48.769Z,9.03
2019-01-18T13:55:26.275Z,4.67
2019-01-18T13:57:54.821Z,5.20
2019-01-18T14:00:23.330Z,8.48
2019-01-18T14:02:51.881Z,6.65
2019-01-18T14:05:20.466Z,8.25
2019-01-18T14:07:53.218Z,6.20
2019-01-18T14:10:22.319Z,9.85
2019-01-18T14:12:50.819Z,14.70
2019-01-18T14:15:21.219Z,7.22
2019-01-18T14:17:49.710Z,5.17
2019-01-18T14:20:21.066Z,6.85
2019-01-18T14:22:50.337Z,10.53
2019-01-18T14:25:18.855Z,10.93
2019-01-18T14:27:47.469Z,5.83
2019-01-18T14:30:24.678Z,4.90
2019-01-18T14:32:55.599Z,3.35
2019-01-18T14:35:23.846Z,6.25
2019-01-18T14:37:53.613Z,10.82
2019-01-18T14:40:22.278Z,5.08
2019-01-18T14:42:52.828Z,2.25
2019-01-18T14:45:29.974Z,6.47
2019-01-18T14:47:58.491Z,7.85
2019-01-18T14:50:26.996Z,4.25
2019-01-18T14:52:55.694Z,5.30
2019-01-18T14:55:24.186Z,9.68
2019-01-18T14:57:52.769Z,8.90
2019-01-18T15:00:31.019Z,7.40
2019-01-18T15:03:02.466Z,4.45
2019-01-18T15:05:29.735Z,4.12
2019-01-18T15:07:58.254Z,4.10
2019-01-18T15:10:27.327Z,4.53
2019-01-18T15:12:59.098Z,6.97
2019-01-18T15:15:27.587Z,8.43
2019-01-18T15:17:56.045Z,4.95
2019-01-18T15:20:29.658Z,4.30
2019-01-18T15:22:58.679Z,6.00
2019-01-18T15:25:27.877Z,5.95
2019-01-18T15:27:56.491Z,7.95
2019-01-18T15:30:27.555Z,5.67
2019-01-18T15:32:56.006Z,6.80
2019-01-18T15:35:26.981Z,7.87
2019-01-18T15:37:55.667Z,7.85
2019-01-18T15:40:29.840Z,17.00
2019-01-18T15:43:00.025Z,11.63
2019-01-18T15:45:28.534Z,15.70
2019-01-18T15:47:57.001Z,10.30
2019-01-18T15:50:27.557Z,9.70
2019-01-18T15:52:56.144Z,10.08
2019-01-18T15:55:24.935Z,11.25
2019-01-18T15:57:53.363Z,9.05
2019-01-18T16:00:30.758Z,7.92
2019-01-18T16:02:59.422Z,7.97
2019-01-18T16:05:27.935Z,8.63
2019-01-18T16:07:56.355Z,6.87
2019-01-18T16:10:25.197Z,8.25
2019-01-18T16:12:53.954Z,6.85
2019-01-18T16:15:40.547Z,6.28
2019-01-18T16:18:12.086Z,5.95
2019-01-18T16:20:40.599Z,8.20
2019-01-18T16:23:09.254Z,5.87
2019-01-18T16:25:37.702Z,12.90
2019-01-18T16:28:06.470Z,12.70
2019-01-18T16:30:35.084Z,10.65
2019-01-18T16:33:03.513Z,12.28
2019-01-18T16:35:32.109Z,9.63
2019-01-18T16:38:00.600Z,12.85
2019-01-18T16:40:34.070Z,13.68
2019-01-18T16:43:17.610Z,10.00
2019-01-18T16:45:46.238Z,7.87
2019-01-18T16:48:14.763Z,11.38
2019-01-18T16:50:43.222Z,16.50
2019-01-18T16:53:11.727Z,23.77
2019-01-18T16:55:40.191Z,24.05
2019-01-18T16:58:08.612Z,36.60
2019-01-18T17:00:43.022Z,20.80
2019-01-18T17:03:11.517Z,7.85
2019-01-18T17:05:39.958Z,11.57
2019-01-18T17:08:08.733Z,57.62
2019-01-18T17:10:37.179Z,71.02
2019-01-18T17:13:06.087Z,137.62
2019-01-18T17:15:34.591Z,119.37
2019-01-18T17:18:03.041Z,55.50
2019-01-18T17:20:40.227Z,22.73
2019-01-18T17:23:08.758Z,14.93
2019-01-18T17:25:37.179Z,10.40
2019-01-18T17:28:05.892Z,12.50
2019-01-18T17:30:34.447Z,11.83
2019-01-18T17:33:02.979Z,13.58
2019-01-18T17:35:40.219Z,14.40
2019-01-18T17:38:20.531Z,15.68
2019-01-18T17:40:52.040Z,18.40
2019-01-18T17:43:29.680Z,15.20
2019-01-18T17:46:16.074Z,15.35
2019-01-18T17:48:50.431Z,17.12
2019-01-18T17:51:34.034Z,19.80
2019-01-18T17:54:23.583Z,16.75
2019-01-18T17:57:06.886Z,20.30
2019-01-18T17:59:59.606Z,30.57
2019-01-18T18:02:39.756Z,33.50
2019-01-18T18:05:29.580Z,39.50
2019-01-18T18:08:23.404Z,42.98
2019-01-18T18:10:57.929Z,29.23
2019-01-18T18:13:38.688Z,27.52
2019-01-18T18:16:10.219Z,14.95
2019-01-18T18:19:02.579Z,12.60
2019-01-18T18:21:48.975Z,16.12
2019-01-18T18:24:23.332Z,16.50
2019-01-18T18:26:57.627Z,18.23
2019-01-18T18:29:50.378Z,19.40
2019-01-18T18:32:38.318Z,26.23
2019-01-18T18:35:09.883Z,31.00
2019-01-18T18:38:00.896Z,58.10
2019-01-18T18:40:32.551Z,47.95
2019-01-18T18:43:13.347Z,51.13
2019-01-18T18:45:53.754Z,48.98
2019-01-18T18:48:25.263Z,36.42
2019-01-18T18:51:16.755Z,35.23
2019-01-18T18:53:51.166Z,22.87
2019-01-18T18:56:34.363Z,24.37
2019-01-18T18:59:08.663Z,18.55
2019-01-18T19:02:13.846Z,30.77
2019-01-18T19:05:03.324Z,47.73
2019-01-18T19:07:38.083Z,111.65
2019-01-18T19:10:24.253Z,97.88
2019-01-18T19:13:11.042Z,35.17
2019-01-18T19:15:51.427Z,33.65
2019-01-18T19:18:43.872Z,26.65
2019-01-18T19:21:32.094Z,25.02
2019-01-18T19:24:12.611Z,36.80
2019-01-18T19:27:02.260Z,35.90
2019-01-18T19:29:56.308Z,42.83
2019-01-18T19:32:42.482Z,29.48
2019-01-18T19:35:16.985Z,26.07
2019-01-18T19:38:08.142Z,27.22
2019-01-18T19:40:51.532Z,33.25
2019-01-18T19:43:34.902Z,36.98
2019-01-18T19:46:27.003Z,29.55
2019-01-18T19:48:58.564Z,29.87
2019-01-18T19:51:44.728Z,35.33
2019-01-18T19:54:31.220Z,25.77
2019-01-18T19:57:08.527Z,28.20
2019-01-18T19:59:42.615Z,31.17
2019-01-18T20:02:17.120Z,34.48
2019-01-18T20:05:00.632Z,26.48
2019-01-18T20:07:34.891Z,27.62
2019-01-18T20:10:15.307Z,34.48
2019-01-18T20:12:52.478Z,67.97
2019-01-18T20:15:31.365Z,78.42
2019-01-18T20:18:22.446Z,95.97
2019-01-18T20:21:02.871Z,73.15
2019-01-18T20:23:49.293Z,56.60
2019-01-18T20:26:45.198Z,42.83
2019-01-18T20:29:43.823Z,31.23
2019-01-18T20:32:15.431Z,34.13
2019-01-18T20:35:04.972Z,26.00
2019-01-18T20:37:48.712Z,29.98
2019-01-18T20:40:29.304Z,30.60
2019-01-18T20:43:03.784Z,24.57
2019-01-18T20:45:35.370Z,37.88
2019-01-18T20:48:23.753Z,24.23
2019-01-18T20:51:10.376Z,25.82
2019-01-18T20:53:44.798Z,28.85
2019-01-18T20:56:25.079Z,29.52
2019-01-18T20:58:56.593Z,23.87
2019-01-18T21:01:53.984Z,28.05
2019-01-18T21:04:33.064Z,32.73
2019-01-18T21:07:13.192Z,33.73
2019-01-18T21:10:05.751Z,30.35
2019-01-18T21:13:10.980Z,28.52
2019-01-18T21:15:59.207Z,32.98
2019-01-18T21:18:35.997Z,30.35
2019-01-18T21:21:12.807Z,27.98
2019-01-18T21:23:53.357Z,40.08
2019-01-18T21:26:29.260Z,31.95
2019-01-18T21:29:18.927Z,44.30
2019-01-18T21:32:10.311Z,33.42
2019-01-18T21:34:50.702Z,30.43
2019-01-18T21:37:41.923Z,24.30
2019-01-18T21:40:29.990Z,26.35
2019-01-18T21:43:16.484Z,25.72
